sensor_id;sensor_type;location;lat;lon;timestamp;temperature;humidity
9193;DHT22;4631;49.296;10.560;2022-08-21T00:02:15;17.30;99.90
9193;DHT22;4631;49.296;10.560;2022-08-21T00:04:41;17.30;99.90
9193;DHT22;4631;49.296;10.560;2022-08-21T00:07:08;17.30;99.90
9193;DHT22;4631;49.296;10.560;2022-08-21T00:09:35;17.20;99.90
9193;DHT22;4631;49.296;10.560;2022-08-21T00:12:02;17.20;99.90
9193;DHT22;4631;49.296;10.560;2022-08-21T00:14:28;17.20;99.90
9193;DHT22;4631;49.296;10.560;2022-08-21T00:16:57;17.10;99.90
9193;DHT22;4631;49.296;10.560;2022-08-21T00:19:23;17.00;99.90
9193;DHT22;4631;49.296;10.560;2022-08-21T00:21:50;16.90;99.90
9193;DHT22;4631;49.296;10.560;2022-08-21T00:24:17;16.90;99.90
9193;DHT22;4631;49.296;10.560;2022-08-21T00:26:44;16.90;99.90
9193;DHT22;4631;49.296;10.560;2022-08-21T00:29:12;16.80;99.90
9193;DHT22;4631;49.296;10.560;2022-08-21T00:31:38;16.80;99.90
9193;DHT22;4631;49.296;10.560;2022-08-21T00:34:07;16.80;99.90
9193;DHT22;4631;49.296;10.560;2022-08-21T00:36:34;16.80;99.90
9193;DHT22;4631;49.296;10.560;2022-08-21T00:39:02;16.80;99.90
9193;DHT22;4631;49.296;10.560;2022-08-21T00:41:29;16.80;99.90
9193;DHT22;4631;49.296;10.560;2022-08-21T00:43:56;16.80;99.90
9193;DHT22;4631;49.296;10.560;2022-08-21T00:46:23;16.80;99.90
9193;DHT22;4631;49.296;10.560;2022-08-21T00:48:49;16.90;99.90
9193;DHT22;4631;49.296;10.560;2022-08-21T00:51:19;16.90;99.90
9193;DHT22;4631;49.296;10.560;2022-08-21T00:53:49;16.80;99.90
9193;DHT22;4631;49.296;10.560;2022-08-21T00:56:17;16.80;99.90
9193;DHT22;4631;49.296;10.560;2022-08-21T00:58:45;16.80;99.90
9193;DHT22;4631;49.296;10.560;2022-08-21T01:01:12;16.70;99.90
9193;DHT22;4631;49.296;10.560;2022-08-21T01:03:38;16.70;99.90
9193;DHT22;4631;49.296;10.560;2022-08-21T01:06:05;16.60;99.90
9193;DHT22;4631;49.296;10.560;2022-08-21T01:08:34;16.70;99.90
9193;DHT22;4631;49.296;10.560;2022-08-21T01:11:01;16.60;99.90
9193;DHT22;4631;49.296;10.560;2022-08-21T01:13:28;16.70;99.90
9193;DHT22;4631;49.296;10.560;2022-08-21T01:15:56;16.60;99.90
9193;DHT22;4631;49.296;10.560;2022-08-21T01:18:24;16.60;99.90
9193;DHT22;4631;49.296;10.560;2022-08-21T01:21:03;16.60;99.90
9193;DHT22;4631;49.296;10.560;2022-08-21T01:23:30;16.60;99.90
9193;DHT22;4631;49.296;10.560;2022-08-21T01:25:56;16.50;99.90
9193;DHT22;4631;49.296;10.560;2022-08-21T01:28:23;16.50;99.90
9193;DHT22;4631;49.296;10.560;2022-08-21T01:30:50;16.50;99.90
9193;DHT22;4631;49.296;10.560;2022-08-21T01:33:17;16.50;99.90
9193;DHT22;4631;49.296;10.560;2022-08-21T01:35:44;16.50;99.90
9193;DHT22;4631;49.296;10.560;2022-08-21T01:38:12;16.50;99.90
9193;DHT22;4631;49.296;10.560;2022-08-21T01:40:39;16.50;99.90
9193;DHT22;4631;49.296;10.560;2022-08-21T01:43:05;16.50;99.90
9193;DHT22;4631;49.296;10.560;2022-08-21T01:45:32;16.50;99.90
9193;DHT22;4631;49.296;10.560;2022-08-21T01:47:58;16.40;99.90
9193;DHT22;4631;49.296;10.560;2022-08-21T01:50:25;16.40;99.90
9193;DHT22;4631;49.296;10.560;2022-08-21T01:52:52;16.40;99.90
9193;DHT22;4631;49.296;10.560;2022-08-21T01:55:20;16.40;99.90
9193;DHT22;4631;49.296;10.560;2022-08-21T01:57:47;16.40;99.90
9193;DHT22;4631;49.296;10.560;2022-08-21T02:00:15;16.40;99.90
9193;DHT22;4631;49.296;10.560;2022-08-21T02:02:42;16.40;99.90
9193;DHT22;4631;49.296;10.560;2022-08-21T02:05:09;16.40;99.90
9193;DHT22;4631;49.296;10.560;2022-08-21T02:07:37;16.40;99.90
9193;DHT22;4631;49.296;10.560;2022-08-21T02:10:05;16.40;99.90
9193;DHT22;4631;49.296;10.560;2022-08-21T02:12:33;16.40;99.90
9193;DHT22;4631;49.296;10.560;2022-08-21T02:15:00;16.40;99.90
9193;DHT22;4631;49.296;10.560;2022-08-21T02:17:27;16.40;99.90
9193;DHT22;4631;49.296;10.560;2022-08-21T02:20:02;16.40;99.90
9193;DHT22;4631;49.296;10.560;2022-08-21T02:22:29;16.40;99.90
9193;DHT22;4631;49.296;10.560;2022-08-21T02:24:56;16.40;99.90
9193;DHT22;4631;49.296;10.560;2022-08-21T02:27:23;16.30;99.90
9193;DHT22;4631;49.296;10.560;2022-08-21T02:29:51;16.30;99.90
9193;DHT22;4631;49.296;10.560;2022-08-21T02:32:18;16.30;99.90
9193;DHT22;4631;49.296;10.560;2022-08-21T02:34:45;16.30;99.90
9193;DHT22;4631;49.296;10.560;2022-08-21T02:37:11;16.30;99.90
9193;DHT22;4631;49.296;10.560;2022-08-21T02:39:38;16.30;99.90
9193;DHT22;4631;49.296;10.560;2022-08-21T02:42:05;16.30;99.90
9193;DHT22;4631;49.296;10.560;2022-08-21T02:44:31;16.20;99.90
9193;DHT22;4631;49.296;10.560;2022-08-21T02:46:59;16.20;99.90
9193;DHT22;4631;49.296;10.560;2022-08-21T02:49:26;16.20;99.90
9193;DHT22;4631;49.296;10.560;2022-08-21T02:51:53;16.20;99.90
9193;DHT22;4631;49.296;10.560;2022-08-21T02:54:19;16.20;99.90
9193;DHT22;4631;49.296;10.560;2022-08-21T02:56:46;16.20;99.90
9193;DHT22;4631;49.296;10.560;2022-08-21T02:59:13;16.20;99.90
9193;DHT22;4631;49.296;10.560;2022-08-21T03:01:39;16.20;99.90
9193;DHT22;4631;49.296;10.560;2022-08-21T03:04:07;16.20;99.90
9193;DHT22;4631;49.296;10.560;2022-08-21T03:06:34;16.10;99.90
9193;DHT22;4631;49.296;10.560;2022-08-21T03:09:01;16.10;99.90
9193;DHT22;4631;49.296;10.560;2022-08-21T03:11:27;16.10;99.90
9193;DHT22;4631;49.296;10.560;2022-08-21T03:13:54;16.10;99.90
9193;DHT22;4631;49.296;10.560;2022-08-21T03:16:20;16.10;99.90
9193;DHT22;4631;49.296;10.560;2022-08-21T03:18:47;16.00;99.90
9193;DHT22;4631;49.296;10.560;2022-08-21T03:21:15;16.00;99.90
9193;DHT22;4631;49.296;10.560;2022-08-21T03:23:44;16.00;99.90
9193;DHT22;4631;49.296;10.560;2022-08-21T03:26:11;16.00;99.90
9193;DHT22;4631;49.296;10.560;2022-08-21T03:28:37;16.00;99.90
9193;DHT22;4631;49.296;10.560;2022-08-21T03:31:04;15.90;99.90
9193;DHT22;4631;49.296;10.560;2022-08-21T03:33:31;15.90;99.90
9193;DHT22;4631;49.296;10.560;2022-08-21T03:35:59;15.90;99.90
9193;DHT22;4631;49.296;10.560;2022-08-21T03:38:28;15.90;99.90
9193;DHT22;4631;49.296;10.560;2022-08-21T03:40:55;15.90;99.90
9193;DHT22;4631;49.296;10.560;2022-08-21T03:43:22;15.80;99.90
9193;DHT22;4631;49.296;10.560;2022-08-21T03:45:49;15.80;99.90
9193;DHT22;4631;49.296;10.560;2022-08-21T03:48:16;15.80;99.90
9193;DHT22;4631;49.296;10.560;2022-08-21T04:00:10;15.80;99.90
9193;DHT22;4631;49.296;10.560;2022-08-21T04:02:37;15.70;99.90
9193;DHT22;4631;49.296;10.560;2022-08-21T04:05:04;15.70;99.90
9193;DHT22;4631;49.296;10.560;2022-08-21T04:07:33;15.70;99.90
9193;DHT22;4631;49.296;10.560;2022-08-21T04:10:00;15.70;99.90
9193;DHT22;4631;49.296;10.560;2022-08-21T04:12:26;15.60;99.90
9193;DHT22;4631;49.296;10.560;2022-08-21T04:14:53;15.60;99.90
9193;DHT22;4631;49.296;10.560;2022-08-21T04:17:21;15.60;99.90
9193;DHT22;4631;49.296;10.560;2022-08-21T04:19:48;15.50;99.90
9193;DHT22;4631;49.296;10.560;2022-08-21T04:22:15;15.50;99.90
9193;DHT22;4631;49.296;10.560;2022-08-21T04:24:42;15.40;99.90
9193;DHT22;4631;49.296;10.560;2022-08-21T04:27:09;15.40;99.90
9193;DHT22;4631;49.296;10.560;2022-08-21T04:29:37;15.30;99.90
9193;DHT22;4631;49.296;10.560;2022-08-21T04:32:09;15.20;99.90
9193;DHT22;4631;49.296;10.560;2022-08-21T04:34:37;15.20;99.90
9193;DHT22;4631;49.296;10.560;2022-08-21T04:37:04;15.20;99.90
9193;DHT22;4631;49.296;10.560;2022-08-21T04:39:45;15.20;99.90
9193;DHT22;4631;49.296;10.560;2022-08-21T04:42:26;15.20;99.90
9193;DHT22;4631;49.296;10.560;2022-08-21T04:44:59;15.10;99.90
9193;DHT22;4631;49.296;10.560;2022-08-21T04:47:26;15.10;99.90
9193;DHT22;4631;49.296;10.560;2022-08-21T04:50:29;15.10;99.90
9193;DHT22;4631;49.296;10.560;2022-08-21T04:53:04;15.10;99.90
9193;DHT22;4631;49.296;10.560;2022-08-21T04:55:50;15.10;99.90
9193;DHT22;4631;49.296;10.560;2022-08-21T04:58:33;15.10;99.90
9193;DHT22;4631;49.296;10.560;2022-08-21T05:01:19;15.10;99.90
9193;DHT22;4631;49.296;10.560;2022-08-21T05:03:50;15.10;99.90
9193;DHT22;4631;49.296;10.560;2022-08-21T05:09:11;15.10;99.90
9193;DHT22;4631;49.296;10.560;2022-08-21T05:11:43;15.10;99.90
9193;DHT22;4631;49.296;10.560;2022-08-21T05:14:15;15.10;99.90
9193;DHT22;4631;49.296;10.560;2022-08-21T05:17:03;15.20;99.90
9193;DHT22;4631;49.296;10.560;2022-08-21T05:19:41;15.20;99.90
9193;DHT22;4631;49.296;10.560;2022-08-21T05:22:10;15.20;99.90
9193;DHT22;4631;49.296;10.560;2022-08-21T05:36:28;15.50;99.90
9193;DHT22;4631;49.296;10.560;2022-08-21T05:39:15;15.60;99.90
9193;DHT22;4631;49.296;10.560;2022-08-21T05:42:00;15.60;99.90
9193;DHT22;4631;49.296;10.560;2022-08-21T05:44:51;15.60;99.90
9193;DHT22;4631;49.296;10.560;2022-08-21T05:51:10;15.80;99.90
9193;DHT22;4631;49.296;10.560;2022-08-21T06:18:52;16.40;99.90
9193;DHT22;4631;49.296;10.560;2022-08-21T06:24:57;16.50;99.90
9193;DHT22;4631;49.296;10.560;2022-08-21T06:27:40;16.50;99.90
9193;DHT22;4631;49.296;10.560;2022-08-21T06:30:23;16.50;99.90
9193;DHT22;4631;49.296;10.560;2022-08-21T06:36:04;16.60;99.90
9193;DHT22;4631;49.296;10.560;2022-08-21T06:38:53;16.60;99.90
9193;DHT22;4631;49.296;10.560;2022-08-21T06:41:27;16.60;99.90
9193;DHT22;4631;49.296;10.560;2022-08-21T06:44:08;16.70;99.90
9193;DHT22;4631;49.296;10.560;2022-08-21T06:46:35;16.80;99.90
9193;DHT22;4631;49.296;10.560;2022-08-21T06:49:05;16.80;99.90
9193;DHT22;4631;49.296;10.560;2022-08-21T06:51:45;16.90;99.90
9193;DHT22;4631;49.296;10.560;2022-08-21T06:54:15;16.90;99.90
9193;DHT22;4631;49.296;10.560;2022-08-21T06:56:45;17.00;99.90
9193;DHT22;4631;49.296;10.560;2022-08-21T06:59:14;17.10;99.90
9193;DHT22;4631;49.296;10.560;2022-08-21T07:01:40;17.10;99.90
9193;DHT22;4631;49.296;10.560;2022-08-21T07:04:10;17.20;99.90
9193;DHT22;4631;49.296;10.560;2022-08-21T07:06:37;17.30;99.90
9193;DHT22;4631;49.296;10.560;2022-08-21T07:09:17;17.30;99.90
9193;DHT22;4631;49.296;10.560;2022-08-21T07:11:49;17.40;99.90
9193;DHT22;4631;49.296;10.560;2022-08-21T07:14:16;17.50;99.90
9193;DHT22;4631;49.296;10.560;2022-08-21T07:16:43;17.50;99.90
9193;DHT22;4631;49.296;10.560;2022-08-21T07:19:10;17.60;99.90
9193;DHT22;4631;49.296;10.560;2022-08-21T07:21:37;17.60;99.90
9193;DHT22;4631;49.296;10.560;2022-08-21T07:24:05;17.70;99.90
9193;DHT22;4631;49.296;10.560;2022-08-21T07:26:31;17.80;99.90
9193;DHT22;4631;49.296;10.560;2022-08-21T07:28:58;17.80;99.90
9193;DHT22;4631;49.296;10.560;2022-08-21T07:31:25;17.90;99.90
9193;DHT22;4631;49.296;10.560;2022-08-21T07:33:52;17.90;99.90
9193;DHT22;4631;49.296;10.560;2022-08-21T07:36:18;18.00;99.90
9193;DHT22;4631;49.296;10.560;2022-08-21T07:38:45;18.00;99.90
9193;DHT22;4631;49.296;10.560;2022-08-21T07:41:15;18.10;99.90
9193;DHT22;4631;49.296;10.560;2022-08-21T07:43:42;18.20;99.90
9193;DHT22;4631;49.296;10.560;2022-08-21T07:46:08;18.30;99.90
9193;DHT22;4631;49.296;10.560;2022-08-21T07:48:35;18.40;99.90
9193;DHT22;4631;49.296;10.560;2022-08-21T07:51:02;18.50;99.90
9193;DHT22;4631;49.296;10.560;2022-08-21T07:53:30;18.60;99.90
9193;DHT22;4631;49.296;10.560;2022-08-21T07:55:57;18.70;99.90
9193;DHT22;4631;49.296;10.560;2022-08-21T07:58:25;18.80;99.90
9193;DHT22;4631;49.296;10.560;2022-08-21T08:00:52;18.90;99.90
9193;DHT22;4631;49.296;10.560;2022-08-21T08:03:18;19.00;99.90
9193;DHT22;4631;49.296;10.560;2022-08-21T08:05:45;19.00;99.90
9193;DHT22;4631;49.296;10.560;2022-08-21T08:08:12;19.10;99.90
9193;DHT22;4631;49.296;10.560;2022-08-21T08:10:38;19.30;99.90
9193;DHT22;4631;49.296;10.560;2022-08-21T08:13:05;19.30;99.90
9193;DHT22;4631;49.296;10.560;2022-08-21T08:15:33;19.40;99.90
9193;DHT22;4631;49.296;10.560;2022-08-21T08:18:00;19.50;99.90
9193;DHT22;4631;49.296;10.560;2022-08-21T08:20:27;19.50;99.90
9193;DHT22;4631;49.296;10.560;2022-08-21T08:22:55;19.60;99.90
9193;DHT22;4631;49.296;10.560;2022-08-21T08:25:22;19.70;99.90
9193;DHT22;4631;49.296;10.560;2022-08-21T08:27:49;19.70;99.90
9193;DHT22;4631;49.296;10.560;2022-08-21T08:30:16;19.70;99.90
9193;DHT22;4631;49.296;10.560;2022-08-21T08:32:45;19.80;99.90
9193;DHT22;4631;49.296;10.560;2022-08-21T08:35:12;19.80;99.90
9193;DHT22;4631;49.296;10.560;2022-08-21T08:37:39;19.90;99.90
9193;DHT22;4631;49.296;10.560;2022-08-21T08:40:07;19.90;99.90
9193;DHT22;4631;49.296;10.560;2022-08-21T08:42:36;19.90;99.90
9193;DHT22;4631;49.296;10.560;2022-08-21T08:45:04;20.00;99.90
9193;DHT22;4631;49.296;10.560;2022-08-21T08:47:32;20.10;99.90
9193;DHT22;4631;49.296;10.560;2022-08-21T08:50:03;20.10;99.90
9193;DHT22;4631;49.296;10.560;2022-08-21T08:52:31;20.20;99.90
9193;DHT22;4631;49.296;10.560;2022-08-21T08:55:00;20.20;99.90
9193;DHT22;4631;49.296;10.560;2022-08-21T08:57:28;20.30;99.90
9193;DHT22;4631;49.296;10.560;2022-08-21T08:59:56;20.40;99.90
9193;DHT22;4631;49.296;10.560;2022-08-21T09:02:23;20.50;99.90
9193;DHT22;4631;49.296;10.560;2022-08-21T09:04:50;20.50;99.90
9193;DHT22;4631;49.296;10.560;2022-08-21T09:07:21;20.60;99.90
9193;DHT22;4631;49.296;10.560;2022-08-21T09:09:53;20.60;99.90
9193;DHT22;4631;49.296;10.560;2022-08-21T09:12:25;20.70;99.90
9193;DHT22;4631;49.296;10.560;2022-08-21T09:14:58;20.70;99.90
9193;DHT22;4631;49.296;10.560;2022-08-21T09:17:32;20.80;99.90
9193;DHT22;4631;49.296;10.560;2022-08-21T09:20:03;21.00;99.90
9193;DHT22;4631;49.296;10.560;2022-08-21T09:22:38;21.10;99.90
9193;DHT22;4631;49.296;10.560;2022-08-21T09:25:08;21.20;99.90
9193;DHT22;4631;49.296;10.560;2022-08-21T09:27:35;21.40;99.90
9193;DHT22;4631;49.296;10.560;2022-08-21T09:30:03;21.60;99.90
9193;DHT22;4631;49.296;10.560;2022-08-21T09:32:30;21.60;99.90
9193;DHT22;4631;49.296;10.560;2022-08-21T09:34:58;21.60;99.90
9193;DHT22;4631;49.296;10.560;2022-08-21T09:37:25;21.70;99.90
9193;DHT22;4631;49.296;10.560;2022-08-21T09:39:55;21.80;99.90
9193;DHT22;4631;49.296;10.560;2022-08-21T09:42:24;21.90;99.90
9193;DHT22;4631;49.296;10.560;2022-08-21T09:45:04;21.90;99.90
9193;DHT22;4631;49.296;10.560;2022-08-21T09:47:31;22.00;99.90
9193;DHT22;4631;49.296;10.560;2022-08-21T09:50:06;22.20;99.90
9193;DHT22;4631;49.296;10.560;2022-08-21T09:52:33;22.20;99.90
9193;DHT22;4631;49.296;10.560;2022-08-21T09:55:02;22.30;99.90
9193;DHT22;4631;49.296;10.560;2022-08-21T09:57:49;22.40;99.90
9193;DHT22;4631;49.296;10.560;2022-08-21T10:00:17;22.50;99.90
9193;DHT22;4631;49.296;10.560;2022-08-21T10:02:44;22.60;99.90
9193;DHT22;4631;49.296;10.560;2022-08-21T10:05:15;22.60;99.90
9193;DHT22;4631;49.296;10.560;2022-08-21T10:07:42;22.60;99.90
9193;DHT22;4631;49.296;10.560;2022-08-21T10:10:15;22.70;99.90
9193;DHT22;4631;49.296;10.560;2022-08-21T10:12:45;22.90;99.90
9193;DHT22;4631;49.296;10.560;2022-08-21T10:15:17;23.00;99.90
9193;DHT22;4631;49.296;10.560;2022-08-21T10:17:49;23.20;99.90
9193;DHT22;4631;49.296;10.560;2022-08-21T10:20:20;23.30;99.90
9193;DHT22;4631;49.296;10.560;2022-08-21T10:22:49;23.50;99.90
9193;DHT22;4631;49.296;10.560;2022-08-21T10:25:23;23.50;99.90
9193;DHT22;4631;49.296;10.560;2022-08-21T10:27:54;23.40;99.90
9193;DHT22;4631;49.296;10.560;2022-08-21T10:30:27;23.30;99.90
9193;DHT22;4631;49.296;10.560;2022-08-21T10:33:06;23.30;99.90
9193;DHT22;4631;49.296;10.560;2022-08-21T10:35:39;23.40;99.90
9193;DHT22;4631;49.296;10.560;2022-08-21T10:38:21;23.50;99.90
9193;DHT22;4631;49.296;10.560;2022-08-21T10:40:54;23.70;99.90
9193;DHT22;4631;49.296;10.560;2022-08-21T10:43:24;23.80;99.90
9193;DHT22;4631;49.296;10.560;2022-08-21T10:45:56;24.00;99.90
9193;DHT22;4631;49.296;10.560;2022-08-21T10:48:24;24.20;99.90
9193;DHT22;4631;49.296;10.560;2022-08-21T10:50:55;24.30;99.90
9193;DHT22;4631;49.296;10.560;2022-08-21T10:53:29;24.30;99.90
9193;DHT22;4631;49.296;10.560;2022-08-21T10:56:01;24.20;99.90
9193;DHT22;4631;49.296;10.560;2022-08-21T10:58:32;24.10;99.90
9193;DHT22;4631;49.296;10.560;2022-08-21T11:01:00;23.90;99.90
9193;DHT22;4631;49.296;10.560;2022-08-21T11:03:32;23.70;99.90
9193;DHT22;4631;49.296;10.560;2022-08-21T11:06:00;23.60;99.90
9193;DHT22;4631;49.296;10.560;2022-08-21T11:08:29;23.50;99.90
9193;DHT22;4631;49.296;10.560;2022-08-21T11:10:59;23.40;99.90
9193;DHT22;4631;49.296;10.560;2022-08-21T11:13:30;23.50;99.90
9193;DHT22;4631;49.296;10.560;2022-08-21T11:16:00;23.80;99.90
9193;DHT22;4631;49.296;10.560;2022-08-21T11:18:29;24.10;99.90
9193;DHT22;4631;49.296;10.560;2022-08-21T11:21:01;24.50;99.90
9193;DHT22;4631;49.296;10.560;2022-08-21T11:23:31;24.80;99.90
9193;DHT22;4631;49.296;10.560;2022-08-21T11:26:00;25.00;99.90
9193;DHT22;4631;49.296;10.560;2022-08-21T11:28:30;25.00;99.90
9193;DHT22;4631;49.296;10.560;2022-08-21T11:31:00;24.90;99.90
9193;DHT22;4631;49.296;10.560;2022-08-21T11:33:31;24.80;99.90
9193;DHT22;4631;49.296;10.560;2022-08-21T11:36:02;24.70;99.90
9193;DHT22;4631;49.296;10.560;2022-08-21T11:38:35;24.80;99.90
9193;DHT22;4631;49.296;10.560;2022-08-21T11:41:09;25.10;99.90
9193;DHT22;4631;49.296;10.560;2022-08-21T11:43:40;25.40;99.90
9193;DHT22;4631;49.296;10.560;2022-08-21T11:46:11;25.60;99.90
9193;DHT22;4631;49.296;10.560;2022-08-21T11:48:40;25.70;99.90
9193;DHT22;4631;49.296;10.560;2022-08-21T11:51:12;25.80;99.90
9193;DHT22;4631;49.296;10.560;2022-08-21T11:53:41;26.00;99.90
9193;DHT22;4631;49.296;10.560;2022-08-21T11:56:17;26.00;99.90
9193;DHT22;4631;49.296;10.560;2022-08-21T11:58:47;25.80;99.90
9193;DHT22;4631;49.296;10.560;2022-08-21T12:01:16;25.70;99.90
9193;DHT22;4631;49.296;10.560;2022-08-21T12:03:50;25.80;99.90
9193;DHT22;4631;49.296;10.560;2022-08-21T12:06:26;25.80;99.90
9193;DHT22;4631;49.296;10.560;2022-08-21T12:08:57;25.60;99.90
9193;DHT22;4631;49.296;10.560;2022-08-21T12:11:24;25.50;99.90
9193;DHT22;4631;49.296;10.560;2022-08-21T12:13:55;25.60;99.90
9193;DHT22;4631;49.296;10.560;2022-08-21T12:16:28;25.80;99.90
9193;DHT22;4631;49.296;10.560;2022-08-21T12:19:02;26.10;99.90
9193;DHT22;4631;49.296;10.560;2022-08-21T12:21:29;26.40;99.90
9193;DHT22;4631;49.296;10.560;2022-08-21T12:24:00;26.70;99.90
9193;DHT22;4631;49.296;10.560;2022-08-21T12:26:28;27.00;99.90
9193;DHT22;4631;49.296;10.560;2022-08-21T12:29:14;27.20;99.90
9193;DHT22;4631;49.296;10.560;2022-08-21T12:34:29;26.80;99.90
9193;DHT22;4631;49.296;10.560;2022-08-21T12:36:58;26.50;99.90
9193;DHT22;4631;49.296;10.560;2022-08-21T12:39:27;26.60;99.90
9193;DHT22;4631;49.296;10.560;2022-08-21T12:41:57;26.90;99.90
9193;DHT22;4631;49.296;10.560;2022-08-21T12:44:27;27.30;99.90
9193;DHT22;4631;49.296;10.560;2022-08-21T12:46:55;27.50;98.60
9193;DHT22;4631;49.296;10.560;2022-08-21T12:49:24;27.70;99.90
9193;DHT22;4631;49.296;10.560;2022-08-21T12:51:53;28.00;98.70
9193;DHT22;4631;49.296;10.560;2022-08-21T12:54:25;28.10;96.60
9193;DHT22;4631;49.296;10.560;2022-08-21T12:56:55;28.30;97.10
9193;DHT22;4631;49.296;10.560;2022-08-21T12:59:22;28.50;98.00
9193;DHT22;4631;49.296;10.560;2022-08-21T13:01:50;28.80;96.20
9193;DHT22;4631;49.296;10.560;2022-08-21T13:04:21;28.70;95.50
9193;DHT22;4631;49.296;10.560;2022-08-21T13:06:50;28.60;95.90
9193;DHT22;4631;49.296;10.560;2022-08-21T13:09:18;28.20;95.00
9193;DHT22;4631;49.296;10.560;2022-08-21T13:11:47;28.00;95.60
9193;DHT22;4631;49.296;10.560;2022-08-21T13:14:17;28.10;95.30
9193;DHT22;4631;49.296;10.560;2022-08-21T13:16:45;28.30;94.70
9193;DHT22;4631;49.296;10.560;2022-08-21T13:19:16;28.40;94.40
9193;DHT22;4631;49.296;10.560;2022-08-21T13:21:44;28.60;92.90
9193;DHT22;4631;49.296;10.560;2022-08-21T13:24:12;28.80;93.30
9193;DHT22;4631;49.296;10.560;2022-08-21T13:26:40;28.80;94.60
9193;DHT22;4631;49.296;10.560;2022-08-21T13:29:07;28.90;95.30
9193;DHT22;4631;49.296;10.560;2022-08-21T13:31:36;29.00;93.30
9193;DHT22;4631;49.296;10.560;2022-08-21T13:34:04;29.10;92.70
9193;DHT22;4631;49.296;10.560;2022-08-21T13:36:35;28.90;92.00
9193;DHT22;4631;49.296;10.560;2022-08-21T13:39:03;28.70;92.00
9193;DHT22;4631;49.296;10.560;2022-08-21T13:41:31;28.70;92.10
9193;DHT22;4631;49.296;10.560;2022-08-21T13:44:00;28.60;91.00
9193;DHT22;4631;49.296;10.560;2022-08-21T13:46:28;28.40;92.60
9193;DHT22;4631;49.296;10.560;2022-08-21T13:48:55;28.10;93.20
9193;DHT22;4631;49.296;10.560;2022-08-21T13:51:22;27.80;93.40
9193;DHT22;4631;49.296;10.560;2022-08-21T13:53:51;27.50;93.00
9193;DHT22;4631;49.296;10.560;2022-08-21T13:56:22;27.20;93.50
9193;DHT22;4631;49.296;10.560;2022-08-21T13:58:48;27.00;93.70
9193;DHT22;4631;49.296;10.560;2022-08-21T14:01:18;26.90;92.80
9193;DHT22;4631;49.296;10.560;2022-08-21T14:03:46;27.10;93.40
9193;DHT22;4631;49.296;10.560;2022-08-21T14:06:14;27.10;92.40
9193;DHT22;4631;49.296;10.560;2022-08-21T14:08:41;27.20;92.50
9193;DHT22;4631;49.296;10.560;2022-08-21T14:11:11;27.10;92.90
9193;DHT22;4631;49.296;10.560;2022-08-21T14:13:39;27.00;93.50
9193;DHT22;4631;49.296;10.560;2022-08-21T14:16:15;26.90;92.80
9193;DHT22;4631;49.296;10.560;2022-08-21T14:18:44;26.50;93.10
9193;DHT22;4631;49.296;10.560;2022-08-21T14:21:10;26.20;92.90
9193;DHT22;4631;49.296;10.560;2022-08-21T14:23:38;26.10;93.30
9193;DHT22;4631;49.296;10.560;2022-08-21T14:26:05;26.00;93.50
9193;DHT22;4631;49.296;10.560;2022-08-21T14:28:34;25.90;93.90
9193;DHT22;4631;49.296;10.560;2022-08-21T14:31:10;25.80;94.00
9193;DHT22;4631;49.296;10.560;2022-08-21T14:33:38;25.80;94.00
9193;DHT22;4631;49.296;10.560;2022-08-21T14:36:05;26.10;95.00
9193;DHT22;4631;49.296;10.560;2022-08-21T14:38:34;26.60;93.70
9193;DHT22;4631;49.296;10.560;2022-08-21T14:41:03;27.20;93.80
9193;DHT22;4631;49.296;10.560;2022-08-21T14:43:30;27.40;92.40
9193;DHT22;4631;49.296;10.560;2022-08-21T14:45:59;27.70;91.90
9193;DHT22;4631;49.296;10.560;2022-08-21T14:48:26;27.90;91.50
9193;DHT22;4631;49.296;10.560;2022-08-21T14:50:53;28.10;91.40
9193;DHT22;4631;49.296;10.560;2022-08-21T14:53:20;28.20;92.00
9193;DHT22;4631;49.296;10.560;2022-08-21T14:55:46;28.50;91.60
9193;DHT22;4631;49.296;10.560;2022-08-21T14:58:32;28.60;91.00
9193;DHT22;4631;49.296;10.560;2022-08-21T15:01:00;28.70;91.00
9193;DHT22;4631;49.296;10.560;2022-08-21T15:03:29;28.80;90.60
9193;DHT22;4631;49.296;10.560;2022-08-21T15:05:55;28.80;90.40
9193;DHT22;4631;49.296;10.560;2022-08-21T15:08:22;28.60;90.20
9193;DHT22;4631;49.296;10.560;2022-08-21T15:10:50;28.40;90.80
9193;DHT22;4631;49.296;10.560;2022-08-21T15:13:17;28.10;91.00
9193;DHT22;4631;49.296;10.560;2022-08-21T15:15:44;27.80;91.40
9193;DHT22;4631;49.296;10.560;2022-08-21T15:18:14;27.60;91.70
9193;DHT22;4631;49.296;10.560;2022-08-21T15:20:40;27.40;91.90
9193;DHT22;4631;49.296;10.560;2022-08-21T15:23:07;27.20;91.70
9193;DHT22;4631;49.296;10.560;2022-08-21T15:25:34;27.10;92.20
9193;DHT22;4631;49.296;10.560;2022-08-21T15:28:02;27.10;92.90
9193;DHT22;4631;49.296;10.560;2022-08-21T15:30:29;27.30;93.00
9193;DHT22;4631;49.296;10.560;2022-08-21T15:32:56;27.70;91.90
9193;DHT22;4631;49.296;10.560;2022-08-21T15:35:24;27.80;92.70
9193;DHT22;4631;49.296;10.560;2022-08-21T15:37:51;28.00;92.20
9193;DHT22;4631;49.296;10.560;2022-08-21T15:40:17;28.10;91.60
9193;DHT22;4631;49.296;10.560;2022-08-21T15:42:44;27.90;91.50
9193;DHT22;4631;49.296;10.560;2022-08-21T15:45:11;27.80;91.50
9193;DHT22;4631;49.296;10.560;2022-08-21T15:47:38;27.70;92.40
9193;DHT22;4631;49.296;10.560;2022-08-21T15:50:09;27.50;92.10
9193;DHT22;4631;49.296;10.560;2022-08-21T15:52:37;27.40;92.30
9193;DHT22;4631;49.296;10.560;2022-08-21T15:55:04;27.50;92.80
9193;DHT22;4631;49.296;10.560;2022-08-21T15:57:31;27.60;92.00
9193;DHT22;4631;49.296;10.560;2022-08-21T15:59:59;27.70;92.30
9193;DHT22;4631;49.296;10.560;2022-08-21T16:02:33;27.60;92.10
9193;DHT22;4631;49.296;10.560;2022-08-21T16:04:59;27.40;92.00
9193;DHT22;4631;49.296;10.560;2022-08-21T16:07:26;27.10;91.60
9193;DHT22;4631;49.296;10.560;2022-08-21T16:09:54;27.10;93.60
9193;DHT22;4631;49.296;10.560;2022-08-21T16:12:22;27.30;93.50
9193;DHT22;4631;49.296;10.560;2022-08-21T16:14:50;27.60;93.30
9193;DHT22;4631;49.296;10.560;2022-08-21T16:17:17;27.80;91.30
9193;DHT22;4631;49.296;10.560;2022-08-21T16:19:44;27.80;91.50
9193;DHT22;4631;49.296;10.560;2022-08-21T16:22:11;27.90;90.80
9193;DHT22;4631;49.296;10.560;2022-08-21T16:24:38;27.70;90.00
9193;DHT22;4631;49.296;10.560;2022-08-21T16:27:06;27.70;90.00
9193;DHT22;4631;49.296;10.560;2022-08-21T16:29:33;27.70;90.80
9193;DHT22;4631;49.296;10.560;2022-08-21T16:32:01;27.60;91.40
9193;DHT22;4631;49.296;10.560;2022-08-21T16:34:28;27.70;92.00
9193;DHT22;4631;49.296;10.560;2022-08-21T16:36:55;27.80;91.20
9193;DHT22;4631;49.296;10.560;2022-08-21T16:39:22;27.90;90.50
9193;DHT22;4631;49.296;10.560;2022-08-21T16:41:48;27.90;90.20
9193;DHT22;4631;49.296;10.560;2022-08-21T16:44:17;27.70;90.40
9193;DHT22;4631;49.296;10.560;2022-08-21T16:46:44;27.50;90.70
9193;DHT22;4631;49.296;10.560;2022-08-21T16:49:11;27.40;90.50
9193;DHT22;4631;49.296;10.560;2022-08-21T16:51:38;27.20;91.20
9193;DHT22;4631;49.296;10.560;2022-08-21T16:54:05;27.10;90.50
9193;DHT22;4631;49.296;10.560;2022-08-21T16:56:32;26.90;91.10
9193;DHT22;4631;49.296;10.560;2022-08-21T16:58:59;26.80;91.50
9193;DHT22;4631;49.296;10.560;2022-08-21T17:01:27;26.70;91.30